Time;durP1;ratioP1;P1;durP2;ratioP2;P2;SDS_P1;SDS_P2;PMS_P1;PMS_P2;Temp;Humidity;BMP_temperature;BMP_pressure;BME280_temperature;BME280_humidity;BME280_pressure;Samples;Min_cycle;Max_cycle;Signal;HPM_P1;HPM_P2
2021/03/21 00:01:59;;;;;;;6.70;6.07;;;;;;;2.18;77.66;94752.31;4966848;28;20499;-81
2021/03/21 00:04:25;;;;;;;11.75;7.45;;;;;;;2.16;77.71;94761.97;4952090;28;20422;-81
2021/03/21 00:06:50;;;;;;;17.38;9.32;;;;;;;2.12;78.07;94773.56;4968416;28;20031;-83
2021/03/21 00:09:16;;;;;;;12.73;7.55;;;;;;;2.19;78.35;94782.13;4969064;28;20030;-85
2021/03/21 00:11:41;;;;;;;12.38;8.32;;;;;;;2.17;77.48;94767.91;4985920;28;20030;-84
2021/03/21 00:14:07;;;;;;;12.65;8.05;;;;;;;2.15;77.35;94762.16;4968795;28;20031;-84
2021/03/21 00:16:33;;;;;;;7.88;6.40;;;;;;;2.06;77.44;94766.59;4937842;28;20046;-84
2021/03/21 00:18:58;;;;;;;8.05;6.68;;;;;;;1.98;78.17;94756.44;4986186;28;20049;-85
2021/03/21 00:21:24;;;;;;;10.10;7.10;;;;;;;1.92;78.10;94764.84;4952481;28;20066;-85
2021/03/21 00:23:50;;;;;;;6.13;4.72;;;;;;;1.90;78.82;94766.78;4938873;28;20046;-85
2021/03/21 00:26:16;;;;;;;9.75;5.35;;;;;;;1.90;78.88;94766.78;4969727;28;20035;-84
2021/03/21 00:28:42;;;;;;;6.50;5.80;;;;;;;1.90;78.45;94761.66;4951221;28;20482;-85
2021/03/21 00:31:08;;;;;;;5.53;5.03;;;;;;;2.08;78.39;94754.38;4972214;28;20042;-84
2021/03/21 00:33:35;;;;;;;5.05;4.55;;;;;;;2.06;78.40;94751.19;5016483;23;20038;-85
2021/03/21 00:36:01;;;;;;;7.25;5.60;;;;;;;2.11;78.26;94738.63;5007000;28;20046;-85
2021/03/21 00:38:28;;;;;;;5.38;4.85;;;;;;;2.06;78.17;94720.41;4978993;28;20037;-84
2021/03/21 00:40:53;;;;;;;8.38;5.32;;;;;;;2.03;78.34;94723.34;4972013;28;20041;-84
2021/03/21 00:43:19;;;;;;;9.38;5.38;;;;;;;2.10;78.25;94726.75;4953654;28;20037;-85
2021/03/21 00:45:44;;;;;;;5.95;5.10;;;;;;;2.07;78.05;94730.50;4955392;28;20027;-85
2021/03/21 00:48:19;;;;;;;6.35;4.93;;;;;;;2.15;77.96;94724.47;4954372;28;20050;-85
2021/03/21 00:50:45;;;;;;;8.48;6.25;;;;;;;2.12;78.31;94732.53;4970122;28;20322;-86
2021/03/21 00:53:10;;;;;;;7.82;6.40;;;;;;;2.25;77.60;94703.63;4943646;28;20089;-86
2021/03/21 00:55:36;;;;;;;10.55;7.15;;;;;;;2.24;77.28;94713.09;4968405;28;20026;-85
2021/03/21 00:58:02;;;;;;;9.93;7.32;;;;;;;2.18;77.55;94734.38;4936491;28;20134;-85
2021/03/21 01:00:36;;;;;;;10.27;7.22;;;;;;;2.32;77.38;94736.09;4959513;28;20089;-86
2021/03/21 01:03:02;;;;;;;10.55;7.55;;;;;;;2.28;77.61;94724.59;4962084;28;20026;-86
2021/03/21 01:05:34;;;;;;;10.15;8.23;;;;;;;2.29;77.46;94726.19;4936443;28;20090;-86
2021/03/21 01:08:00;;;;;;;11.95;8.60;;;;;;;2.11;78.44;94712.97;4940450;28;20030;-85
2021/03/21 01:10:38;;;;;;;16.45;10.48;;;;;;;2.02;78.46;94720.00;4955292;28;20035;-85
2021/03/21 01:13:04;;;;;;;16.05;11.98;;;;;;;2.02;78.94;94719.19;4934940;29;20046;-83
2021/03/21 01:15:29;;;;;;;13.98;10.63;;;;;;;2.04;79.37;94718.03;4950971;29;20051;-82
2021/03/21 01:17:58;;;;;;;18.48;11.63;;;;;;;2.12;79.36;94731.75;4944729;28;20543;-82
2021/03/21 01:20:25;;;;;;;21.63;13.25;;;;;;;2.10;78.91;94708.81;4920002;29;20079;-82
2021/03/21 01:22:50;;;;;;;17.02;13.30;;;;;;;2.05;78.64;94690.63;4912757;29;20068;-81
2021/03/21 01:25:21;;;;;;;23.48;14.27;;;;;;;2.00;79.26;94683.47;4913475;29;20124;-82
2021/03/21 01:27:49;;;;;;;23.95;14.55;;;;;;;2.08;79.25;94700.50;4964604;23;20503;-83
2021/03/21 01:30:16;;;;;;;25.05;15.27;;;;;;;2.11;79.02;94687.31;4970591;28;20037;-85
2021/03/21 01:32:41;;;;;;;19.13;13.82;;;;;;;2.30;78.35;94709.81;4992699;28;20113;-85
2021/03/21 01:35:08;;;;;;;21.90;13.40;;;;;;;2.48;78.12;94724.78;4993858;28;20522;-84
2021/03/21 01:37:39;;;;;;;19.95;12.80;;;;;;;2.63;76.36;94732.44;4971892;28;20023;-83
2021/03/21 01:41:03;;;;;;;17.33;11.05;;;;;;;2.57;76.76;94722.88;5088477;23;20136;-84
2021/03/21 01:45:39;;;;;;;16.20;8.68;;;;;;;2.70;76.13;94705.03;4996232;28;20065;-83
2021/03/21 01:48:26;;;;;;;16.08;10.75;;;;;;;2.69;75.43;94685.47;4987682;28;20121;-86
2021/03/21 01:50:57;;;;;;;14.80;9.32;;;;;;;2.45;76.49;94691.00;4937376;28;20050;-86
2021/03/21 01:53:24;;;;;;;21.15;10.48;;;;;;;2.44;77.08;94691.97;4944984;28;20106;-86
2021/03/21 01:55:51;;;;;;;8.80;7.47;;;;;;;2.49;77.05;94674.25;4943559;28;20039;-86
2021/03/21 01:58:17;;;;;;;8.55;5.88;;;;;;;2.58;76.40;94688.53;4943850;28;20089;-86
2021/03/21 02:03:11;;;;;;;5.60;5.00;;;;;;;2.31;76.74;94670.34;4997969;23;20051;-85
2021/03/21 02:05:37;;;;;;;5.10;4.70;;;;;;;2.36;77.12;94685.19;4952046;28;20042;-84
2021/03/21 02:08:15;;;;;;;5.38;4.72;;;;;;;2.41;77.28;94668.25;4960377;28;20034;-83
2021/03/21 02:10:53;;;;;;;5.07;4.57;;;;;;;2.37;77.20;94672.19;4966733;28;20161;-82
2021/03/21 02:13:36;;;;;;;4.90;4.25;;;;;;;2.38;77.30;94662.72;4985921;28;20042;-83
2021/03/21 02:16:10;;;;;;;5.38;3.50;;;;;;;2.26;77.52;94688.06;4954885;28;20544;-83
2021/03/21 02:18:57;;;;;;;3.80;3.50;;;;;;;2.15;77.90;94673.16;4950156;28;20042;-82
2021/03/21 02:21:41;;;;;;;3.95;3.65;;;;;;;2.14;78.62;94676.72;4971447;28;20039;-82
2021/03/21 02:24:28;;;;;;;6.60;3.40;;;;;;;1.96;78.74;94666.09;4962240;28;20562;-82
2021/03/21 02:27:26;;;;;;;6.57;4.05;;;;;;;1.88;79.40;94681.56;4980891;28;20081;-83
2021/03/21 02:29:56;;;;;;;4.18;3.88;;;;;;;1.78;79.98;94680.06;4970556;28;20126;-82
2021/03/21 02:32:44;;;;;;;3.80;3.50;;;;;;;1.79;79.52;94678.34;4953848;28;20038;-83
2021/03/21 02:35:39;;;;;;;3.67;3.38;;;;;;;1.83;79.64;94679.56;4972837;28;20035;-84
2021/03/21 02:38:10;;;;;;;4.65;4.25;;;;;;;1.92;79.45;94673.31;4970035;28;20034;-84
2021/03/21 02:40:41;;;;;;;3.42;3.15;;;;;;;1.78;79.67;94686.97;4970281;28;20130;-84
2021/03/21 02:43:15;;;;;;;3.33;2.80;;;;;;;1.76;79.24;94706.88;5226464;23;20057;-83
2021/03/21 02:45:41;;;;;;;2.75;2.55;;;;;;;1.67;80.49;94683.13;4987134;28;20061;-84
2021/03/21 02:48:12;;;;;;;2.75;2.55;;;;;;;1.76;79.62;94689.72;5076285;23;20491;-86
2021/03/21 02:50:41;;;;;;;2.60;2.43;;;;;;;1.77;80.00;94680.25;4979419;28;20097;-86
2021/03/21 02:53:21;;;;;;;2.70;2.50;;;;;;;1.70;79.85;94682.75;4990591;28;20289;-84
2021/03/21 02:55:48;;;;;;;2.13;2.03;;;;;;;1.81;79.71;94686.63;5005221;28;20027;-84
2021/03/21 02:58:17;;;;;;;2.42;2.33;;;;;;;1.79;79.28;94689.38;4979706;28;20038;-84
2021/03/21 03:00:57;;;;;;;2.10;2.00;;;;;;;1.70;79.60;94675.06;4975212;28;20505;-83
2021/03/21 03:03:23;;;;;;;1.90;1.80;;;;;;;1.54;80.73;94666.81;4990945;28;20022;-83
2021/03/21 03:05:51;;;;;;;2.45;2.05;;;;;;;1.54;80.79;94670.16;4991952;28;20026;-84
2021/03/21 03:08:18;;;;;;;2.40;2.05;;;;;;;1.64;80.91;94668.13;4980402;28;20056;-85
2021/03/21 03:11:05;;;;;;;4.63;2.22;;;;;;;1.55;80.54;94671.75;5007766;28;20034;-84
2021/03/21 03:13:38;;;;;;;2.05;1.95;;;;;;;1.60;80.23;94672.00;5013463;28;20069;-83
2021/03/21 03:16:17;;;;;;;2.67;2.47;;;;;;;1.61;80.81;94676.13;4974521;28;20034;-82
2021/03/21 03:18:45;;;;;;;2.47;2.38;;;;;;;1.63;80.23;94678.53;4993883;28;20068;-83
2021/03/21 03:21:19;;;;;;;3.10;2.75;;;;;;;1.61;80.63;94671.00;5012604;28;20089;-83
2021/03/21 03:24:08;;;;;;;3.30;3.10;;;;;;;1.56;80.39;94663.06;4997092;28;20045;-83
2021/03/21 03:26:53;;;;;;;3.22;3.03;;;;;;;1.58;80.95;94670.59;4975262;28;20148;-82
2021/03/21 03:29:20;;;;;;;3.53;3.22;;;;;;;1.55;81.05;94651.25;4991314;28;20035;-83
2021/03/21 03:31:48;;;;;;;3.40;3.10;;;;;;;1.50;80.95;94663.81;4960079;28;20034;-85
2021/03/21 03:34:13;;;;;;;4.10;3.08;;;;;;;1.47;81.44;94659.03;4978086;28;20030;-86
2021/03/21 03:36:39;;;;;;;3.25;3.05;;;;;;;1.34;81.61;94658.88;4972941;28;20505;-86
2021/03/21 03:39:05;;;;;;;3.58;3.38;;;;;;;1.33;81.61;94664.97;4992359;28;20034;-86
2021/03/21 03:41:44;;;;;;;4.55;3.75;;;;;;;1.19;82.34;94669.94;4977879;28;20049;-87
2021/03/21 03:44:25;;;;;;;4.55;4.15;;;;;;;1.35;81.65;94668.16;4958518;28;20116;-86
2021/03/21 03:46:59;;;;;;;4.50;4.15;;;;;;;1.49;81.29;94667.34;4972992;28;20124;-86
2021/03/21 03:49:35;;;;;;;3.80;3.42;;;;;;;1.63;80.46;94674.22;4990707;28;20026;-86
2021/03/21 03:52:24;;;;;;;4.28;3.90;;;;;;;1.62;80.98;94672.59;4997207;28;20125;-86
2021/03/21 03:55:24;;;;;;;4.05;3.72;;;;;;;1.58;80.57;94686.75;4971192;28;20092;-85
2021/03/21 03:58:01;;;;;;;4.82;4.10;;;;;;;1.51;81.59;94685.91;4996748;28;20070;-86
2021/03/21 04:00:31;;;;;;;5.60;4.07;;;;;;;1.64;81.58;94686.06;4994728;28;20069;-87
2021/03/21 04:02:59;;;;;;;4.60;3.80;;;;;;;1.52;80.85;94677.22;4990448;28;20502;-84
2021/03/21 04:05:47;;;;;;;3.83;3.53;;;;;;;1.48;81.50;94686.25;4974139;28;20041;-84
2021/03/21 04:08:29;;;;;;;4.13;3.20;;;;;;;1.56;81.49;94672.53;4976173;28;20042;-84
2021/03/21 04:11:00;;;;;;;4.18;3.88;;;;;;;1.60;81.14;94668.63;4974076;28;20034;-83
2021/03/21 04:13:58;;;;;;;4.25;3.85;;;;;;;1.76;80.55;94684.59;4970118;28;20085;-84
2021/03/21 04:16:28;;;;;;;5.25;4.70;;;;;;;1.73;80.33;94664.44;5005002;28;20089;-84
2021/03/21 04:19:00;;;;;;;3.70;3.40;;;;;;;1.73;80.53;94676.47;4971688;28;20018;-83
2021/03/21 04:21:52;;;;;;;4.25;3.85;;;;;;;1.84;79.33;94675.22;4971502;28;20042;-83
2021/03/21 04:24:18;;;;;;;4.18;3.88;;;;;;;1.82;79.81;94682.31;5007850;28;20037;-84
2021/03/21 04:26:46;;;;;;;3.83;3.55;;;;;;;1.82;79.82;94687.44;4990500;28;20044;-83
2021/03/21 04:29:19;;;;;;;3.67;3.38;;;;;;;1.61;80.06;94688.94;4955872;28;20482;-83
2021/03/21 04:31:44;;;;;;;4.15;3.78;;;;;;;1.48;81.50;94691.38;4986668;28;20525;-83
2021/03/21 04:34:10;;;;;;;5.05;4.63;;;;;;;1.51;81.43;94683.31;4969719;28;20026;-82
2021/03/21 04:36:37;;;;;;;5.10;4.60;;;;;;;1.37;82.02;94673.88;4967292;28;20080;-83
2021/03/21 04:39:14;;;;;;;5.32;4.45;;;;;;;1.35;82.10;94693.78;4970564;28;20034;-83
2021/03/21 04:41:43;;;;;;;5.72;5.07;;;;;;;1.43;81.49;94673.16;4975364;28;20397;-84
2021/03/21 04:44:26;;;;;;;4.95;4.45;;;;;;;1.54;81.05;94680.41;4970741;28;20030;-83
2021/03/21 04:49:22;;;;;;;4.63;4.22;;;;;;;1.77;80.91;94688.75;5051043;23;20054;-84
2021/03/21 04:51:48;;;;;;;4.63;4.22;;;;;;;1.84;80.19;94690.59;4968189;28;20078;-84
2021/03/21 04:54:29;;;;;;;4.53;4.15;;;;;;;1.74;79.77;94686.53;4969119;28;20073;-83
2021/03/21 04:57:24;;;;;;;6.07;3.90;;;;;;;1.74;80.67;94678.84;4968346;28;20062;-84
2021/03/21 04:59:51;;;;;;;6.18;4.95;;;;;;;1.61;80.78;94676.13;4977675;28;20045;-83
2021/03/21 05:02:27;;;;;;;5.63;5.15;;;;;;;1.53;81.51;94683.16;4957542;28;20474;-84
2021/03/21 05:05:13;;;;;;;5.38;4.88;;;;;;;1.53;81.20;94678.03;4960024;28;20042;-83
2021/03/21 05:07:50;;;;;;;4.28;3.92;;;;;;;1.43;81.85;94678.28;4955408;28;20054;-83
2021/03/21 05:10:35;;;;;;;6.20;4.60;;;;;;;1.41;81.70;94675.13;4939801;28;20027;-83
2021/03/21 05:13:07;;;;;;;13.95;4.45;;;;;;;1.48;81.77;94665.75;4968237;28;20065;-83
2021/03/21 05:15:41;;;;;;;5.35;4.85;;;;;;;1.51;81.22;94665.38;4976266;28;20097;-84
2021/03/21 05:18:35;;;;;;;5.38;4.57;;;;;;;1.55;81.71;94658.94;4988989;23;20183;-84
2021/03/21 05:21:29;;;;;;;9.95;4.82;;;;;;;1.47;81.43;94648.78;4969534;28;20049;-84
2021/03/21 05:24:08;;;;;;;5.95;4.22;;;;;;;1.50;81.13;94640.75;4962177;28;20042;-84
2021/03/21 05:26:50;;;;;;;5.85;4.60;;;;;;;1.46;81.46;94644.63;4991799;28;20089;-85
2021/03/21 05:29:27;;;;;;;5.22;4.72;;;;;;;1.53;81.36;94648.06;4994055;28;20034;-85
2021/03/21 05:31:52;;;;;;;4.50;4.20;;;;;;;1.62;80.71;94646.97;4977405;28;20164;-85
2021/03/21 05:34:18;;;;;;;4.32;4.03;;;;;;;1.81;80.58;94663.56;4979024;28;20031;-84
2021/03/21 05:36:57;;;;;;;4.80;4.40;;;;;;;1.58;80.33;94660.34;4993784;28;20038;-84
2021/03/21 05:40:00;;;;;;;10.40;5.07;;;;;;;1.47;82.02;94659.84;4973991;28;20030;-84
2021/03/21 05:42:35;;;;;;;6.10;4.93;;;;;;;1.66;81.05;94667.94;4995147;28;20038;-85
2021/03/21 05:45:13;;;;;;;5.45;4.95;;;;;;;1.47;81.49;94674.41;4993971;28;20042;-85
2021/03/21 05:47:57;;;;;;;5.25;4.80;;;;;;;1.67;81.41;94669.50;4994490;28;20525;-84
2021/03/21 05:50:44;;;;;;;5.70;5.20;;;;;;;1.68;81.98;94671.91;5019095;23;20038;-85
2021/03/21 05:53:46;;;;;;;4.95;4.55;;;;;;;1.74;80.71;94678.06;5008812;28;20086;-85
2021/03/21 05:56:15;;;;;;;5.32;4.90;;;;;;;1.57;81.52;94674.91;4989659;28;20126;-84
2021/03/21 05:59:02;;;;;;;6.07;5.10;;;;;;;1.67;80.64;94682.34;5003246;23;20046;-86
2021/03/21 06:04:29;;;;;;;5.68;4.75;;;;;;;1.94;79.63;94691.09;5006034;22;20125;-83
2021/03/21 06:07:13;;;;;;;6.47;5.82;;;;;;;1.67;80.49;94685.69;4989447;28;20061;-84
2021/03/21 06:09:42;;;;;;;6.13;5.60;;;;;;;1.56;81.31;94673.31;4988391;28;20061;-84
2021/03/21 06:12:26;;;;;;;6.40;5.88;;;;;;;1.90;80.59;94689.88;4989068;28;20041;-84
2021/03/21 06:15:16;;;;;;;6.65;5.95;;;;;;;1.86;79.29;94675.84;4976592;28;20117;-85
2021/03/21 06:18:10;;;;;;;7.43;6.72;;;;;;;1.73;80.46;94674.72;5003380;28;20061;-85
2021/03/21 06:21:06;;;;;;;6.63;6.00;;;;;;;1.76;80.34;94683.78;5012015;28;20039;-85
2021/03/21 06:24:04;;;;;;;6.93;6.32;;;;;;;1.67;80.50;94685.69;4974654;28;20125;-84
2021/03/21 06:26:41;;;;;;;6.85;6.18;;;;;;;1.95;79.64;94692.69;4994108;28;20520;-83
2021/03/21 06:29:18;;;;;;;6.78;6.18;;;;;;;1.85;79.65;94702.44;5009535;23;20129;-83
2021/03/21 06:32:16;;;;;;;7.53;6.22;;;;;;;1.83;79.69;94701.84;4971821;28;20026;-86
2021/03/21 06:35:00;;;;;;;7.40;6.47;;;;;;;1.87;79.86;94710.75;4964030;28;20422;-86
2021/03/21 06:37:45;;;;;;;10.48;6.95;;;;;;;1.95;79.38;94702.94;4997003;28;20039;-86
2021/03/21 06:40:24;;;;;;;6.97;6.25;;;;;;;1.77;80.16;94711.81;4991554;28;20676;-86
2021/03/21 06:42:50;;;;;;;10.00;7.15;;;;;;;1.72;80.63;94711.56;4968849;28;20042;-85
2021/03/21 06:45:34;;;;;;;7.35;6.40;;;;;;;1.65;80.58;94708.16;5040231;23;20602;-85
2021/03/21 06:48:30;;;;;;;9.25;6.85;;;;;;;1.68;80.17;94709.56;5010656;28;20402;-85
2021/03/21 06:51:17;;;;;;;11.85;7.78;;;;;;;1.68;80.59;94697.53;4980280;28;20062;-87
2021/03/21 06:53:57;;;;;;;8.48;7.28;;;;;;;1.84;80.03;94700.84;5012320;28;20029;-87
2021/03/21 06:56:32;;;;;;;7.93;7.03;;;;;;;1.91;79.64;94701.72;5048309;23;20053;-87
2021/03/21 06:59:35;;;;;;;9.07;7.60;;;;;;;1.66;80.92;94704.59;4995713;28;20039;-85
2021/03/21 07:02:29;;;;;;;10.25;8.10;;;;;;;1.62;80.82;94692.31;4992908;28;20042;-83
2021/03/21 07:05:34;;;;;;;8.27;7.00;;;;;;;1.70;80.85;94703.25;4964075;28;20043;-82
2021/03/21 07:08:34;;;;;;;9.93;7.43;;;;;;;1.65;80.70;94712.47;4942722;28;20065;-82
2021/03/21 07:11:37;;;;;;;8.20;7.38;;;;;;;1.77;81.21;94700.75;4943621;28;20050;-82
2021/03/21 07:17:07;;;;;;;12.43;7.13;;;;;;;1.84;80.39;94695.72;5129926;23;20357;-81
2021/03/21 07:20:00;;;;;;;8.68;7.72;;;;;;;1.73;80.92;94692.66;4971345;28;20476;-78
2021/03/21 07:22:44;;;;;;;7.00;6.30;;;;;;;1.74;80.51;94707.06;4948651;28;20114;-82
2021/03/21 07:25:54;;;;;;;7.57;6.70;;;;;;;1.84;81.84;94701.66;4968683;28;20484;-81
2021/03/21 07:28:20;;;;;;;6.45;5.90;;;;;;;1.94;80.33;94701.34;4962267;28;20138;-82
2021/03/21 07:31:00;;;;;;;11.50;6.80;;;;;;;1.75;80.87;94708.63;4968239;28;20066;-82
2021/03/21 07:34:14;;;;;;;7.70;6.93;;;;;;;1.89;80.56;94698.53;4981402;28;20042;-79
2021/03/21 07:36:55;;;;;;;8.45;6.68;;;;;;;1.87;80.19;94701.28;4919588;29;20029;-81
2021/03/21 07:39:24;;;;;;;19.27;12.18;;;;;;;1.95;79.95;94688.38;4948940;28;20518;-78
2021/03/21 07:42:11;;;;;;;13.30;7.72;;;;;;;2.10;79.61;94696.78;4973003;28;20118;-79
2021/03/21 07:44:49;;;;;;;8.40;6.43;;;;;;;1.98;79.76;94700.03;4966718;28;20038;-82
2021/03/21 07:47:32;;;;;;;11.38;8.32;;;;;;;2.00;80.28;94691.19;4985437;28;20031;-79
2021/03/21 07:50:23;;;;;;;9.02;7.63;;;;;;;1.98;79.76;94689.78;4957348;28;20031;-78
2021/03/21 07:53:01;;;;;;;8.60;6.95;;;;;;;2.16;79.57;94694.47;4972539;28;20069;-81
2021/03/21 07:55:52;;;;;;;10.07;6.93;;;;;;;2.28;79.28;94691.25;4949101;28;20458;-82
2021/03/21 07:58:55;;;;;;;16.23;9.85;;;;;;;2.27;78.20;94687.06;4950843;28;20058;-81
2021/03/21 08:01:20;;;;;;;;;;;;;;;2.31;77.66;94683.19;4967698;28;20034;-81
2021/03/21 08:03:59;;;;;;;8.43;6.45;;;;;;;2.23;78.59;94691.00;4964263;28;19919;-82
2021/03/21 08:06:48;;;;;;;6.82;6.05;;;;;;;2.31;78.49;94692.66;4966941;28;20034;-82
2021/03/21 08:09:21;;;;;;;6.60;5.63;;;;;;;2.27;77.95;94687.06;4949188;28;20096;-82
2021/03/21 08:11:58;;;;;;;7.28;6.20;;;;;;;2.29;78.24;94681.78;4968622;28;20031;-82
2021/03/21 08:14:28;;;;;;;5.68;5.10;;;;;;;2.16;78.32;94666.28;5010703;23;20066;-83
2021/03/21 08:16:57;;;;;;;11.13;5.57;;;;;;;2.23;78.99;94670.47;4986541;28;20031;-83
2021/03/21 08:19:42;;;;;;;10.77;5.22;;;;;;;2.30;77.89;94652.59;4964408;28;20030;-83
2021/03/21 08:22:16;;;;;;;6.72;5.35;;;;;;;2.18;78.73;94654.84;4982574;28;20046;-83
2021/03/21 08:24:41;;;;;;;6.75;6.05;;;;;;;2.33;79.06;94655.56;4986891;28;20038;-83
2021/03/21 08:27:18;;;;;;;7.85;5.80;;;;;;;2.39;77.44;94644.56;4992837;28;20551;-81
2021/03/21 08:29:57;;;;;;;8.35;6.18;;;;;;;2.29;78.27;94653.56;4979446;23;20410;-80
2021/03/21 08:32:22;;;;;;;8.75;5.47;;;;;;;2.28;78.57;94657.91;5015659;23;20052;-79
2021/03/21 08:34:49;;;;;;;13.25;9.45;;;;;;;2.15;79.07;94655.22;5030172;23;20046;-83
2021/03/21 08:37:27;;;;;;;8.63;7.45;;;;;;;2.19;78.41;94650.50;5007549;28;20041;-83
2021/03/21 08:40:14;;;;;;;6.75;6.10;;;;;;;2.53;77.82;94649.81;4987342;28;20034;-82
2021/03/21 08:42:41;;;;;;;11.60;6.10;;;;;;;2.52;77.85;94637.94;5007675;28;20040;-81
2021/03/21 08:45:21;;;;;;;8.38;6.85;;;;;;;2.71;76.66;94629.59;4990104;23;20033;-81
2021/03/21 08:47:57;;;;;;;7.88;5.95;;;;;;;2.80;76.95;94619.97;4956656;28;20046;-81
2021/03/21 08:50:28;;;;;;;5.47;4.97;;;;;;;2.65;76.44;94628.56;4975697;28;20130;-81
2021/03/21 08:52:54;;;;;;;8.52;5.15;;;;;;;2.72;76.62;94613.19;4976140;28;20036;-79
2021/03/21 08:55:35;;;;;;;6.47;5.05;;;;;;;3.23;76.09;94615.44;4954554;28;20052;-80
2021/03/21 08:58:21;;;;;;;7.38;5.55;;;;;;;3.41;74.03;94623.44;4978023;28;20027;-80
2021/03/21 09:00:46;;;;;;;5.80;5.28;;;;;;;3.65;73.22;94616.22;4994834;28;20062;-81
2021/03/21 09:03:27;;;;;;;5.35;4.85;;;;;;;3.50;73.39;94617.16;4970546;28;20046;-79
2021/03/21 09:05:55;;;;;;;6.15;4.85;;;;;;;3.42;73.11;94630.19;4956192;28;20038;-81
2021/03/21 09:08:25;;;;;;;6.53;4.95;;;;;;;3.43;73.22;94612.97;5155485;23;20054;-80
2021/03/21 09:10:59;;;;;;;6.53;5.07;;;;;;;3.63;71.56;94613.03;4993882;28;20026;-84
2021/03/21 09:13:26;;;;;;;5.18;4.68;;;;;;;3.49;72.84;94617.34;4990723;28;20045;-81
2021/03/21 09:15:55;;;;;;;4.50;4.07;;;;;;;3.66;72.63;94597.22;4985622;28;20026;-79
2021/03/21 09:18:40;;;;;;;6.35;4.97;;;;;;;3.77;72.12;94600.03;4968684;28;20194;-80
2021/03/21 09:21:17;;;;;;;6.43;4.85;;;;;;;3.95;71.02;94603.81;4972535;28;20035;-81
2021/03/21 09:23:47;;;;;;;4.80;4.40;;;;;;;3.96;71.97;94606.19;4990568;28;20042;-80
2021/03/21 09:26:12;;;;;;;8.70;4.18;;;;;;;4.10;71.34;94591.56;4992685;22;20400;-81
2021/03/21 09:28:39;;;;;;;5.25;4.65;;;;;;;4.56;69.69;94581.25;4998119;23;20038;-81
2021/03/21 09:31:08;;;;;;;5.97;4.15;;;;;;;4.58;69.31;94583.63;4987652;28;20029;-81
2021/03/21 09:34:00;;;;;;;6.18;4.85;;;;;;;4.15;70.48;94584.03;4970254;28;20035;-81
2021/03/21 09:36:31;;;;;;;9.35;4.30;;;;;;;4.48;69.37;94576.31;4989152;28;20037;-82
2021/03/21 09:39:01;;;;;;;7.88;3.97;;;;;;;4.30;68.57;94576.13;4977294;28;20038;-81
2021/03/21 09:41:28;;;;;;;4.25;3.85;;;;;;;4.53;68.55;94589.38;5005338;28;20121;-82
2021/03/21 09:43:58;;;;;;;6.20;4.38;;;;;;;4.78;69.12;94592.91;4989171;28;20038;-83
2021/03/21 09:46:44;;;;;;;4.85;4.35;;;;;;;4.66;68.84;94591.94;4984451;28;20030;-77
2021/03/21 09:49:25;;;;;;;9.40;4.35;;;;;;;5.00;67.86;94595.22;4985917;28;20033;-81
2021/03/21 09:51:52;;;;;;;5.18;4.68;;;;;;;5.13;66.88;94592.63;4969929;28;20426;-80
2021/03/21 09:54:29;;;;;;;4.70;4.07;;;;;;;4.90;67.05;94597.47;4969698;28;20026;-81
2021/03/21 09:57:13;;;;;;;3.75;3.45;;;;;;;4.82;66.58;94601.81;4977515;28;20048;-80
2021/03/21 09:59:41;;;;;;;4.90;3.53;;;;;;;4.69;66.93;94593.31;5014704;28;20045;-81
2021/03/21 10:02:38;;;;;;;3.47;3.10;;;;;;;4.52;66.33;94587.78;5004915;28;20089;-81
2021/03/21 10:05:28;;;;;;;5.90;3.97;;;;;;;4.87;66.43;94578.00;4988907;28;20038;-82
2021/03/21 10:08:12;;;;;;;4.65;3.97;;;;;;;4.91;66.71;94581.00;5008707;28;20038;-81
2021/03/21 10:10:44;;;;;;;4.55;4.10;;;;;;;5.02;66.07;94559.75;5003824;28;20104;-83
2021/03/21 10:13:09;;;;;;;5.38;4.00;;;;;;;5.17;65.76;94562.88;4967491;28;20121;-80
2021/03/21 10:16:20;;;;;;;4.75;4.05;;;;;;;5.24;65.01;94562.84;4969215;28;20580;-81
2021/03/21 10:18:47;;;;;;;3.45;3.15;;;;;;;4.89;64.93;94580.41;4960074;28;20533;-83
2021/03/21 10:21:24;;;;;;;6.60;2.95;;;;;;;4.40;64.08;94576.53;4968724;28;20037;-81
2021/03/21 10:24:00;;;;;;;4.78;3.63;;;;;;;4.37;65.04;94566.59;4984113;28;20047;-82
2021/03/21 10:31:20;;;;;;;3.58;3.28;;;;;;;3.89;66.97;94574.50;5053245;23;20054;-81
2021/03/21 10:33:46;;;;;;;3.67;3.28;;;;;;;3.80;67.92;94585.97;4997215;28;20045;-79
2021/03/21 10:36:12;;;;;;;4.43;4.00;;;;;;;3.67;68.99;94567.94;4993505;28;20059;-82
2021/03/21 10:38:47;;;;;;;7.43;3.85;;;;;;;3.84;69.17;94562.25;4962236;28;20054;-79
2021/03/21 10:41:52;;;;;;;4.20;3.80;;;;;;;3.87;69.81;94568.78;4987742;28;20102;-79
2021/03/21 10:44:19;;;;;;;6.97;4.00;;;;;;;3.78;69.76;94551.97;5001117;28;20034;-83
2021/03/21 10:49:46;;;;;;;4.57;4.18;;;;;;;4.30;68.46;94546.03;5006430;28;20266;-81
2021/03/21 10:52:34;;;;;;;5.68;4.10;;;;;;;4.19;68.32;94526.81;4968667;28;20110;-82
2021/03/21 10:55:27;;;;;;;4.60;4.20;;;;;;;4.32;67.92;94527.81;4992695;28;20413;-83
2021/03/21 10:57:59;;;;;;;4.95;4.45;;;;;;;4.31;66.97;94536.53;4992670;28;20065;-82
2021/03/21 11:00:31;;;;;;;4.93;4.20;;;;;;;4.59;66.64;94521.63;4981482;28;20037;-81
2021/03/21 11:03:00;;;;;;;;;;;;;;;4.75;66.86;94528.13;5003222;28;20098;-81
2021/03/21 11:08:28;;;;;;;6.60;4.70;;;;;;;5.32;64.65;94517.00;5070005;23;20054;-81
2021/03/21 11:10:55;;;;;;;6.25;4.25;;;;;;;5.27;63.96;94522.00;4965552;28;20038;-80
2021/03/21 11:13:28;;;;;;;5.95;4.50;;;;;;;5.30;64.35;94506.09;4927539;28;20038;-81
2021/03/21 11:15:54;;;;;;;6.18;5.05;;;;;;;5.49;64.48;94503.63;4959270;28;20018;-81
2021/03/21 11:18:19;;;;;;;7.35;5.03;;;;;;;5.75;62.92;94511.19;4979177;28;20041;-80
2021/03/21 11:20:45;;;;;;;5.22;4.45;;;;;;;5.62;62.51;94506.13;4965404;28;20067;-79
2021/03/21 11:23:21;;;;;;;5.88;4.75;;;;;;;5.52;63.26;94518.66;4968856;28;20101;-81
2021/03/21 11:25:46;;;;;;;3.97;3.47;;;;;;;4.92;63.69;94510.44;4952312;28;20054;-81
2021/03/21 11:28:25;;;;;;;5.28;3.78;;;;;;;4.99;63.16;94518.94;4944935;28;20514;-81
2021/03/21 11:30:55;;;;;;;7.03;3.67;;;;;;;4.77;64.57;94506.31;4976207;23;20057;-81
2021/03/21 11:33:34;;;;;;;6.75;3.22;;;;;;;4.56;64.47;94506.59;4971438;28;20074;-82
2021/03/21 11:36:23;;;;;;;3.40;3.20;;;;;;;4.46;65.05;94495.91;4957461;28;20038;-81
2021/03/21 11:38:48;;;;;;;6.22;2.97;;;;;;;4.37;65.54;94484.22;4974607;28;20098;-80
2021/03/21 11:41:33;;;;;;;2.80;2.60;;;;;;;4.27;65.63;94494.16;4977420;28;20026;-79
2021/03/21 11:44:22;;;;;;;4.10;3.55;;;;;;;4.40;65.41;94473.56;4942791;28;20089;-81
2021/03/21 11:46:48;;;;;;;3.00;2.80;;;;;;;4.36;66.46;94462.84;4974820;28;20034;-81
2021/03/21 11:49:14;;;;;;;3.25;3.00;;;;;;;4.08;66.77;94465.69;4940501;28;20031;-84
2021/03/21 11:51:40;;;;;;;3.17;2.70;;;;;;;4.32;66.52;94474.53;4972861;28;20042;-83
2021/03/21 11:54:06;;;;;;;3.55;3.25;;;;;;;4.19;67.05;94467.63;4952637;23;20042;-83
2021/03/21 11:56:33;;;;;;;3.08;2.80;;;;;;;4.11;67.20;94465.28;4996164;28;20045;-83
2021/03/21 11:59:16;;;;;;;3.80;3.40;;;;;;;4.26;67.82;94448.84;4968561;28;20039;-83
2021/03/21 12:01:43;;;;;;;3.30;3.00;;;;;;;4.73;66.29;94442.56;4937662;28;20045;-82
2021/03/21 12:04:10;;;;;;;2.97;2.78;;;;;;;5.22;65.53;94443.69;4965665;28;20121;-84
2021/03/21 12:06:41;;;;;;;4.18;3.65;;;;;;;5.29;64.57;94437.50;4970848;28;20030;-82
2021/03/21 12:09:32;;;;;;;4.50;3.92;;;;;;;5.45;65.09;94435.41;4963207;28;20043;-82
2021/03/21 12:12:03;;;;;;;3.83;3.53;;;;;;;5.33;64.23;94425.75;5004394;28;20031;-83
2021/03/21 12:14:31;;;;;;;4.25;3.80;;;;;;;5.25;63.45;94428.59;4977033;28;20035;-83
2021/03/21 12:17:22;;;;;;;5.07;3.55;;;;;;;5.26;64.07;94417.28;4982919;28;20036;-83
2021/03/21 12:19:48;;;;;;;3.40;3.20;;;;;;;5.03;65.62;94409.28;4998225;28;20045;-81
2021/03/21 12:22:29;;;;;;;4.55;4.07;;;;;;;4.98;65.40;94424.59;4976442;28;20034;-82
2021/03/21 12:24:59;;;;;;;4.80;4.43;;;;;;;4.95;65.34;94422.44;5000025;28;20475;-83
2021/03/21 12:27:27;;;;;;;6.00;3.60;;;;;;;4.88;64.28;94401.03;4991081;23;20046;-82
2021/03/21 12:29:53;;;;;;;3.78;3.47;;;;;;;4.69;65.86;94406.09;4986367;28;20034;-83
2021/03/21 12:32:26;;;;;;;3.42;3.10;;;;;;;4.40;67.09;94391.19;4981925;28;20042;-83
2021/03/21 12:34:51;;;;;;;3.60;3.30;;;;;;;4.14;67.40;94392.03;4955199;28;20042;-83
2021/03/21 12:37:19;;;;;;;4.22;3.83;;;;;;;4.41;67.56;94372.97;4937887;28;20038;-84
2021/03/21 12:40:04;;;;;;;3.60;3.40;;;;;;;4.33;67.97;94374.97;4960003;28;20031;-82
2021/03/21 12:42:30;;;;;;;4.78;4.38;;;;;;;4.38;68.51;94388.78;4996959;28;20034;-81
2021/03/21 12:45:14;;;;;;;3.42;3.17;;;;;;;4.26;67.46;94376.78;4985435;28;20027;-84
2021/03/21 12:47:44;;;;;;;4.45;4.15;;;;;;;4.05;68.33;94363.16;4972307;28;20522;-83